sensor_id;sensor_type;location;lat;lon;timestamp;temperature;humidity
59469;DHT22;45277;52.768;18.262;2023-02-23T00:01:25;-2.50;99.90
59469;DHT22;45277;52.768;18.262;2023-02-23T00:02:59;-2.40;99.90
59469;DHT22;45277;52.768;18.262;2023-02-23T00:04:35;-2.40;99.90
59469;DHT22;45277;52.768;18.262;2023-02-23T00:06:08;-2.40;99.90
59469;DHT22;45277;52.768;18.262;2023-02-23T00:07:41;-2.40;99.90
59469;DHT22;45277;52.768;18.262;2023-02-23T00:09:14;-2.40;99.90
59469;DHT22;45277;52.768;18.262;2023-02-23T00:10:53;-2.40;99.90
59469;DHT22;45277;52.768;18.262;2023-02-23T00:12:30;-2.50;99.90
59469;DHT22;45277;52.768;18.262;2023-02-23T00:14:01;-2.40;99.90
59469;DHT22;45277;52.768;18.262;2023-02-23T00:15:33;-2.40;99.90
59469;DHT22;45277;52.768;18.262;2023-02-23T00:17:06;-2.40;99.90
59469;DHT22;45277;52.768;18.262;2023-02-23T00:18:46;-2.40;99.90
59469;DHT22;45277;52.768;18.262;2023-02-23T00:20:22;-2.40;99.90
59469;DHT22;45277;52.768;18.262;2023-02-23T00:21:59;-2.40;99.90
59469;DHT22;45277;52.768;18.262;2023-02-23T00:23:31;-2.40;99.90
59469;DHT22;45277;52.768;18.262;2023-02-23T00:25:03;-2.40;99.90
59469;DHT22;45277;52.768;18.262;2023-02-23T00:26:39;-2.40;99.90
59469;DHT22;45277;52.768;18.262;2023-02-23T00:28:10;-2.40;99.90
59469;DHT22;45277;52.768;18.262;2023-02-23T00:29:42;-2.30;99.90
59469;DHT22;45277;52.768;18.262;2023-02-23T00:31:13;-2.30;99.90
59469;DHT22;45277;52.768;18.262;2023-02-23T00:32:45;-2.30;99.90
59469;DHT22;45277;52.768;18.262;2023-02-23T00:34:18;-2.20;99.90
59469;DHT22;45277;52.768;18.262;2023-02-23T00:35:53;-2.10;99.90
59469;DHT22;45277;52.768;18.262;2023-02-23T00:37:25;-2.10;99.90
59469;DHT22;45277;52.768;18.262;2023-02-23T00:38:59;-2.10;99.90
59469;DHT22;45277;52.768;18.262;2023-02-23T00:40:31;-2.10;99.90
59469;DHT22;45277;52.768;18.262;2023-02-23T00:42:03;-2.10;99.90
59469;DHT22;45277;52.768;18.262;2023-02-23T00:43:38;-2.10;99.90
59469;DHT22;45277;52.768;18.262;2023-02-23T00:45:12;-2.10;99.90
59469;DHT22;45277;52.768;18.262;2023-02-23T00:46:44;-2.10;99.90
59469;DHT22;45277;52.768;18.262;2023-02-23T00:48:19;-2.10;99.90
59469;DHT22;45277;52.768;18.262;2023-02-23T00:49:50;-2.10;99.90
59469;DHT22;45277;52.768;18.262;2023-02-23T00:51:23;-2.10;99.90
59469;DHT22;45277;52.768;18.262;2023-02-23T00:52:56;-2.10;99.90
59469;DHT22;45277;52.768;18.262;2023-02-23T00:54:29;-2.10;99.90
59469;DHT22;45277;52.768;18.262;2023-02-23T00:56:04;-2.20;99.90
59469;DHT22;45277;52.768;18.262;2023-02-23T00:57:35;-2.20;99.90
59469;DHT22;45277;52.768;18.262;2023-02-23T00:59:07;-2.10;99.90
59469;DHT22;45277;52.768;18.262;2023-02-23T01:00:39;-2.20;99.90
59469;DHT22;45277;52.768;18.262;2023-02-23T01:02:12;-2.20;99.90
59469;DHT22;45277;52.768;18.262;2023-02-23T01:03:44;-2.10;99.90
59469;DHT22;45277;52.768;18.262;2023-02-23T01:05:16;-2.10;99.90
59469;DHT22;45277;52.768;18.262;2023-02-23T01:06:47;-2.10;99.90
59469;DHT22;45277;52.768;18.262;2023-02-23T01:08:20;-2.10;99.90
59469;DHT22;45277;52.768;18.262;2023-02-23T01:09:52;-2.00;99.90
59469;DHT22;45277;52.768;18.262;2023-02-23T01:11:26;-2.00;99.90
59469;DHT22;45277;52.768;18.262;2023-02-23T01:12:57;-2.10;99.90
59469;DHT22;45277;52.768;18.262;2023-02-23T01:14:29;-2.10;99.90
59469;DHT22;45277;52.768;18.262;2023-02-23T01:16:07;-2.10;99.90
59469;DHT22;45277;52.768;18.262;2023-02-23T01:17:39;-2.10;99.90
59469;DHT22;45277;52.768;18.262;2023-02-23T01:19:10;-2.20;99.90
59469;DHT22;45277;52.768;18.262;2023-02-23T01:20:42;-2.20;99.90
59469;DHT22;45277;52.768;18.262;2023-02-23T01:22:14;-2.20;99.90
59469;DHT22;45277;52.768;18.262;2023-02-23T01:23:46;-2.20;99.90
59469;DHT22;45277;52.768;18.262;2023-02-23T01:25:17;-2.30;99.90
59469;DHT22;45277;52.768;18.262;2023-02-23T01:26:49;-2.40;99.90
59469;DHT22;45277;52.768;18.262;2023-02-23T01:28:20;-2.40;99.90
59469;DHT22;45277;52.768;18.262;2023-02-23T01:29:53;-2.40;99.90
59469;DHT22;45277;52.768;18.262;2023-02-23T01:31:25;-2.40;99.90
59469;DHT22;45277;52.768;18.262;2023-02-23T01:32:57;-2.40;99.90
59469;DHT22;45277;52.768;18.262;2023-02-23T01:34:28;-2.40;99.90
59469;DHT22;45277;52.768;18.262;2023-02-23T01:36:00;-2.40;99.90
59469;DHT22;45277;52.768;18.262;2023-02-23T01:37:35;-2.30;99.90
59469;DHT22;45277;52.768;18.262;2023-02-23T01:39:12;-2.30;99.90
59469;DHT22;45277;52.768;18.262;2023-02-23T01:40:44;-2.30;99.90
59469;DHT22;45277;52.768;18.262;2023-02-23T01:42:17;-2.30;99.90
59469;DHT22;45277;52.768;18.262;2023-02-23T01:45:44;-2.20;99.90
59469;DHT22;45277;52.768;18.262;2023-02-23T01:47:16;-2.20;99.90
59469;DHT22;45277;52.768;18.262;2023-02-23T01:48:51;-2.20;99.90
59469;DHT22;45277;52.768;18.262;2023-02-23T01:50:28;-2.10;99.90
59469;DHT22;45277;52.768;18.262;2023-02-23T01:52:07;-2.20;99.90
59469;DHT22;45277;52.768;18.262;2023-02-23T01:54:17;-2.10;99.90
59469;DHT22;45277;52.768;18.262;2023-02-23T01:55:59;-2.10;99.90
59469;DHT22;45277;52.768;18.262;2023-02-23T01:57:31;-2.00;99.90
59469;DHT22;45277;52.768;18.262;2023-02-23T01:59:06;-2.00;99.90
59469;DHT22;45277;52.768;18.262;2023-02-23T02:00:38;-2.00;99.90
59469;DHT22;45277;52.768;18.262;2023-02-23T02:02:11;-2.00;99.90
59469;DHT22;45277;52.768;18.262;2023-02-23T02:03:56;-2.00;99.90
59469;DHT22;45277;52.768;18.262;2023-02-23T02:05:28;-2.00;99.90
59469;DHT22;45277;52.768;18.262;2023-02-23T02:07:00;-2.00;99.90
59469;DHT22;45277;52.768;18.262;2023-02-23T02:08:34;-2.00;99.90
59469;DHT22;45277;52.768;18.262;2023-02-23T02:10:14;-2.10;99.90
59469;DHT22;45277;52.768;18.262;2023-02-23T02:11:46;-2.10;99.90
59469;DHT22;45277;52.768;18.262;2023-02-23T02:13:28;-2.10;99.90
59469;DHT22;45277;52.768;18.262;2023-02-23T02:15:03;-2.10;99.90
59469;DHT22;45277;52.768;18.262;2023-02-23T02:17:14;-2.10;99.90
59469;DHT22;45277;52.768;18.262;2023-02-23T02:21:13;-2.10;99.90
59469;DHT22;45277;52.768;18.262;2023-02-23T02:27:03;-2.10;99.90
59469;DHT22;45277;52.768;18.262;2023-02-23T02:29:02;-2.10;99.90
59469;DHT22;45277;52.768;18.262;2023-02-23T02:33:04;-2.10;99.90
59469;DHT22;45277;52.768;18.262;2023-02-23T02:38:33;-2.10;99.90
59469;DHT22;45277;52.768;18.262;2023-02-23T02:40:50;-2.20;99.90
59469;DHT22;45277;52.768;18.262;2023-02-23T02:42:34;-2.20;99.90
59469;DHT22;45277;52.768;18.262;2023-02-23T02:46:25;-2.20;99.90
59469;DHT22;45277;52.768;18.262;2023-02-23T02:48:28;-2.10;99.90
59469;DHT22;45277;52.768;18.262;2023-02-23T02:51:42;-2.10;99.90
59469;DHT22;45277;52.768;18.262;2023-02-23T02:55:17;-2.00;99.90
59469;DHT22;45277;52.768;18.262;2023-02-23T02:56:54;-2.00;99.90
59469;DHT22;45277;52.768;18.262;2023-02-23T02:58:31;-2.00;99.90
59469;DHT22;45277;52.768;18.262;2023-02-23T03:00:04;-2.00;99.90
59469;DHT22;45277;52.768;18.262;2023-02-23T03:01:54;-2.00;99.90
59469;DHT22;45277;52.768;18.262;2023-02-23T03:03:45;-2.00;99.90
59469;DHT22;45277;52.768;18.262;2023-02-23T03:05:43;-2.00;99.90
59469;DHT22;45277;52.768;18.262;2023-02-23T03:07:40;-1.90;99.90
59469;DHT22;45277;52.768;18.262;2023-02-23T03:10:06;-2.00;99.90
59469;DHT22;45277;52.768;18.262;2023-02-23T03:14:16;-1.90;99.90
59469;DHT22;45277;52.768;18.262;2023-02-23T03:16:14;-1.90;99.90
59469;DHT22;45277;52.768;18.262;2023-02-23T03:20:35;-2.00;99.90
59469;DHT22;45277;52.768;18.262;2023-02-23T03:22:37;-2.00;99.90
59469;DHT22;45277;52.768;18.262;2023-02-23T03:29:13;-2.00;99.90
59469;DHT22;45277;52.768;18.262;2023-02-23T03:31:19;-2.10;99.90
59469;DHT22;45277;52.768;18.262;2023-02-23T03:36:08;-2.10;99.90
59469;DHT22;45277;52.768;18.262;2023-02-23T03:38:16;-2.10;99.90
59469;DHT22;45277;52.768;18.262;2023-02-23T03:40:19;-2.10;99.90
59469;DHT22;45277;52.768;18.262;2023-02-23T03:42:14;-2.10;99.90
59469;DHT22;45277;52.768;18.262;2023-02-23T03:44:10;-2.00;99.90
59469;DHT22;45277;52.768;18.262;2023-02-23T03:46:04;-2.00;99.90
59469;DHT22;45277;52.768;18.262;2023-02-23T03:47:57;-2.00;99.90
59469;DHT22;45277;52.768;18.262;2023-02-23T03:49:49;-2.00;99.90
59469;DHT22;45277;52.768;18.262;2023-02-23T03:51:41;-2.00;99.90
59469;DHT22;45277;52.768;18.262;2023-02-23T03:53:38;-2.00;99.90
59469;DHT22;45277;52.768;18.262;2023-02-23T03:55:33;-2.00;99.90
59469;DHT22;45277;52.768;18.262;2023-02-23T03:57:27;-1.90;99.90
59469;DHT22;45277;52.768;18.262;2023-02-23T03:59:21;-2.00;99.90
59469;DHT22;45277;52.768;18.262;2023-02-23T04:01:13;-2.00;99.90
59469;DHT22;45277;52.768;18.262;2023-02-23T04:03:07;-2.00;99.90
59469;DHT22;45277;52.768;18.262;2023-02-23T04:04:59;-1.90;99.90
59469;DHT22;45277;52.768;18.262;2023-02-23T04:06:52;-1.90;99.90
59469;DHT22;45277;52.768;18.262;2023-02-23T04:08:45;-1.90;99.90
59469;DHT22;45277;52.768;18.262;2023-02-23T04:10:42;-2.00;99.90
59469;DHT22;45277;52.768;18.262;2023-02-23T04:12:46;-2.00;99.90
59469;DHT22;45277;52.768;18.262;2023-02-23T04:14:44;-1.90;99.90
59469;DHT22;45277;52.768;18.262;2023-02-23T04:16:19;-2.00;99.90
59469;DHT22;45277;52.768;18.262;2023-02-23T04:17:51;-2.00;99.90
59469;DHT22;45277;52.768;18.262;2023-02-23T04:19:26;-1.90;99.90
59469;DHT22;45277;52.768;18.262;2023-02-23T04:20:59;-1.90;99.90
59469;DHT22;45277;52.768;18.262;2023-02-23T04:22:31;-1.90;99.90
59469;DHT22;45277;52.768;18.262;2023-02-23T04:24:03;-1.90;99.90
59469;DHT22;45277;52.768;18.262;2023-02-23T04:25:34;-1.80;99.90
59469;DHT22;45277;52.768;18.262;2023-02-23T04:27:06;-1.80;99.90
59469;DHT22;45277;52.768;18.262;2023-02-23T04:28:37;-1.80;99.90
59469;DHT22;45277;52.768;18.262;2023-02-23T04:30:09;-1.80;99.90
59469;DHT22;45277;52.768;18.262;2023-02-23T04:31:41;-1.80;99.90
59469;DHT22;45277;52.768;18.262;2023-02-23T04:33:13;-1.80;99.90
59469;DHT22;45277;52.768;18.262;2023-02-23T04:34:44;-1.80;99.90
59469;DHT22;45277;52.768;18.262;2023-02-23T04:36:16;-1.80;99.90
59469;DHT22;45277;52.768;18.262;2023-02-23T04:37:48;-1.80;99.90
59469;DHT22;45277;52.768;18.262;2023-02-23T04:39:19;-1.80;99.90
59469;DHT22;45277;52.768;18.262;2023-02-23T04:40:50;-1.80;99.90
59469;DHT22;45277;52.768;18.262;2023-02-23T04:42:22;-1.80;99.90
59469;DHT22;45277;52.768;18.262;2023-02-23T04:43:53;-1.80;99.90
59469;DHT22;45277;52.768;18.262;2023-02-23T04:45:25;-1.80;99.90
59469;DHT22;45277;52.768;18.262;2023-02-23T04:46:57;-1.70;99.90
59469;DHT22;45277;52.768;18.262;2023-02-23T04:48:28;-1.70;99.90
59469;DHT22;45277;52.768;18.262;2023-02-23T04:50:00;-1.70;99.90
59469;DHT22;45277;52.768;18.262;2023-02-23T04:51:31;-1.80;99.90
59469;DHT22;45277;52.768;18.262;2023-02-23T04:53:03;-1.80;99.90
59469;DHT22;45277;52.768;18.262;2023-02-23T04:54:38;-1.80;99.90
59469;DHT22;45277;52.768;18.262;2023-02-23T04:56:10;-1.80;99.90
59469;DHT22;45277;52.768;18.262;2023-02-23T04:57:42;-1.70;99.90
59469;DHT22;45277;52.768;18.262;2023-02-23T04:59:13;-1.70;99.90
59469;DHT22;45277;52.768;18.262;2023-02-23T05:00:45;-1.70;99.90
59469;DHT22;45277;52.768;18.262;2023-02-23T05:02:16;-1.70;99.90
59469;DHT22;45277;52.768;18.262;2023-02-23T05:03:49;-1.70;99.90
59469;DHT22;45277;52.768;18.262;2023-02-23T05:05:20;-1.70;99.90
59469;DHT22;45277;52.768;18.262;2023-02-23T05:06:52;-1.70;99.90
59469;DHT22;45277;52.768;18.262;2023-02-23T05:08:23;-1.70;99.90
59469;DHT22;45277;52.768;18.262;2023-02-23T05:09:55;-1.70;99.90
59469;DHT22;45277;52.768;18.262;2023-02-23T05:11:27;-1.70;99.90
59469;DHT22;45277;52.768;18.262;2023-02-23T05:12:58;-1.60;99.90
59469;DHT22;45277;52.768;18.262;2023-02-23T05:14:31;-1.70;99.90
59469;DHT22;45277;52.768;18.262;2023-02-23T05:16:03;-1.70;99.90
59469;DHT22;45277;52.768;18.262;2023-02-23T05:17:40;-1.70;99.90
59469;DHT22;45277;52.768;18.262;2023-02-23T05:19:12;-1.70;99.90
59469;DHT22;45277;52.768;18.262;2023-02-23T05:20:44;-1.70;99.90
59469;DHT22;45277;52.768;18.262;2023-02-23T05:22:15;-1.60;99.90
59469;DHT22;45277;52.768;18.262;2023-02-23T05:23:47;-1.60;99.90
59469;DHT22;45277;52.768;18.262;2023-02-23T05:25:19;-1.70;99.90
59469;DHT22;45277;52.768;18.262;2023-02-23T05:26:50;-1.60;99.90
59469;DHT22;45277;52.768;18.262;2023-02-23T05:28:22;-1.60;99.90
59469;DHT22;45277;52.768;18.262;2023-02-23T05:29:53;-1.60;99.90
59469;DHT22;45277;52.768;18.262;2023-02-23T05:31:25;-1.60;99.90
59469;DHT22;45277;52.768;18.262;2023-02-23T05:32:57;-1.60;99.90
59469;DHT22;45277;52.768;18.262;2023-02-23T05:34:29;-1.70;99.90
59469;DHT22;45277;52.768;18.262;2023-02-23T05:36:03;-1.70;99.90
59469;DHT22;45277;52.768;18.262;2023-02-23T05:37:35;-1.70;99.90
59469;DHT22;45277;52.768;18.262;2023-02-23T05:39:07;-1.60;99.90
59469;DHT22;45277;52.768;18.262;2023-02-23T05:40:38;-1.60;99.90
59469;DHT22;45277;52.768;18.262;2023-02-23T05:42:10;-1.70;99.90
59469;DHT22;45277;52.768;18.262;2023-02-23T05:43:42;-1.60;99.90
59469;DHT22;45277;52.768;18.262;2023-02-23T05:45:13;-1.60;99.90
59469;DHT22;45277;52.768;18.262;2023-02-23T05:46:45;-1.60;99.90
59469;DHT22;45277;52.768;18.262;2023-02-23T05:48:17;-1.60;99.90
59469;DHT22;45277;52.768;18.262;2023-02-23T05:49:49;-1.60;99.90
59469;DHT22;45277;52.768;18.262;2023-02-23T05:51:20;-1.60;99.90
59469;DHT22;45277;52.768;18.262;2023-02-23T05:52:52;-1.60;99.90
59469;DHT22;45277;52.768;18.262;2023-02-23T05:54:23;-1.60;99.90
59469;DHT22;45277;52.768;18.262;2023-02-23T05:55:55;-1.60;99.90
59469;DHT22;45277;52.768;18.262;2023-02-23T05:57:27;-1.60;99.90
59469;DHT22;45277;52.768;18.262;2023-02-23T05:58:58;-1.60;99.90
59469;DHT22;45277;52.768;18.262;2023-02-23T06:00:31;-1.60;99.90
59469;DHT22;45277;52.768;18.262;2023-02-23T06:02:02;-1.60;99.90
59469;DHT22;45277;52.768;18.262;2023-02-23T06:03:37;-1.60;99.90
59469;DHT22;45277;52.768;18.262;2023-02-23T06:05:10;-1.60;99.90
59469;DHT22;45277;52.768;18.262;2023-02-23T06:06:41;-1.60;99.90
59469;DHT22;45277;52.768;18.262;2023-02-23T06:08:13;-1.50;99.90
59469;DHT22;45277;52.768;18.262;2023-02-23T06:09:45;-1.50;99.90
59469;DHT22;45277;52.768;18.262;2023-02-23T06:11:16;-1.40;99.90
59469;DHT22;45277;52.768;18.262;2023-02-23T06:12:47;-1.40;99.90
59469;DHT22;45277;52.768;18.262;2023-02-23T06:14:19;-1.40;99.90
59469;DHT22;45277;52.768;18.262;2023-02-23T06:15:51;-1.40;99.90
59469;DHT22;45277;52.768;18.262;2023-02-23T06:17:23;-1.40;99.90
59469;DHT22;45277;52.768;18.262;2023-02-23T06:18:54;-1.30;99.90
59469;DHT22;45277;52.768;18.262;2023-02-23T06:20:26;-1.40;99.90
59469;DHT22;45277;52.768;18.262;2023-02-23T06:21:57;-1.30;99.90
59469;DHT22;45277;52.768;18.262;2023-02-23T06:23:30;-1.30;99.90
59469;DHT22;45277;52.768;18.262;2023-02-23T06:25:02;-1.30;99.90
59469;DHT22;45277;52.768;18.262;2023-02-23T06:26:35;-1.20;99.90
59469;DHT22;45277;52.768;18.262;2023-02-23T06:28:07;-1.20;99.90
59469;DHT22;45277;52.768;18.262;2023-02-23T06:29:38;-1.20;99.90
59469;DHT22;45277;52.768;18.262;2023-02-23T06:31:10;-1.20;99.90
59469;DHT22;45277;52.768;18.262;2023-02-23T06:32:42;-1.10;99.90
59469;DHT22;45277;52.768;18.262;2023-02-23T06:34:13;-1.10;99.90
59469;DHT22;45277;52.768;18.262;2023-02-23T06:35:45;-1.10;99.90
59469;DHT22;45277;52.768;18.262;2023-02-23T06:37:16;-1.00;99.90
59469;DHT22;45277;52.768;18.262;2023-02-23T06:38:48;-1.00;99.90
59469;DHT22;45277;52.768;18.262;2023-02-23T06:40:20;-1.00;99.90
59469;DHT22;45277;52.768;18.262;2023-02-23T06:41:52;-1.00;99.90
59469;DHT22;45277;52.768;18.262;2023-02-23T06:43:23;-0.90;99.90
59469;DHT22;45277;52.768;18.262;2023-02-23T06:44:54;-0.90;99.90
59469;DHT22;45277;52.768;18.262;2023-02-23T06:46:26;-0.90;99.90
59469;DHT22;45277;52.768;18.262;2023-02-23T06:47:58;-0.90;99.90
59469;DHT22;45277;52.768;18.262;2023-02-23T06:49:31;-0.80;99.90
59469;DHT22;45277;52.768;18.262;2023-02-23T06:51:03;-0.80;99.90
59469;DHT22;45277;52.768;18.262;2023-02-23T06:52:34;-0.80;99.90
59469;DHT22;45277;52.768;18.262;2023-02-23T06:54:06;-0.70;99.90
59469;DHT22;45277;52.768;18.262;2023-02-23T06:55:38;-0.70;99.90
59469;DHT22;45277;52.768;18.262;2023-02-23T06:57:10;-0.70;99.90
59469;DHT22;45277;52.768;18.262;2023-02-23T06:58:41;-0.70;99.90
59469;DHT22;45277;52.768;18.262;2023-02-23T07:00:14;-0.60;99.90
59469;DHT22;45277;52.768;18.262;2023-02-23T07:01:47;-0.60;99.90
59469;DHT22;45277;52.768;18.262;2023-02-23T07:03:18;-0.60;99.90
59469;DHT22;45277;52.768;18.262;2023-02-23T07:04:50;-0.50;99.90
59469;DHT22;45277;52.768;18.262;2023-02-23T07:06:22;-0.50;99.90
59469;DHT22;45277;52.768;18.262;2023-02-23T07:07:53;-0.50;99.90
59469;DHT22;45277;52.768;18.262;2023-02-23T07:09:25;-0.40;99.90
59469;DHT22;45277;52.768;18.262;2023-02-23T07:11:03;-0.40;99.90
59469;DHT22;45277;52.768;18.262;2023-02-23T07:12:35;-0.40;99.90
59469;DHT22;45277;52.768;18.262;2023-02-23T07:14:09;-0.30;99.90
59469;DHT22;45277;52.768;18.262;2023-02-23T07:15:41;-0.30;99.90
59469;DHT22;45277;52.768;18.262;2023-02-23T07:17:13;-0.20;99.90
59469;DHT22;45277;52.768;18.262;2023-02-23T07:18:44;-0.20;99.90
59469;DHT22;45277;52.768;18.262;2023-02-23T07:20:16;-0.20;99.90
59469;DHT22;45277;52.768;18.262;2023-02-23T07:21:48;-0.10;99.90
59469;DHT22;45277;52.768;18.262;2023-02-23T07:23:20;-0.10;99.90
59469;DHT22;45277;52.768;18.262;2023-02-23T07:24:52;-0.10;99.90
59469;DHT22;45277;52.768;18.262;2023-02-23T07:26:23;0.00;99.90
59469;DHT22;45277;52.768;18.262;2023-02-23T07:27:55;0.10;99.90
59469;DHT22;45277;52.768;18.262;2023-02-23T07:29:29;0.00;99.90
59469;DHT22;45277;52.768;18.262;2023-02-23T07:31:00;0.10;99.90
59469;DHT22;45277;52.768;18.262;2023-02-23T07:32:32;0.20;99.90
59469;DHT22;45277;52.768;18.262;2023-02-23T07:34:03;0.20;99.90
59469;DHT22;45277;52.768;18.262;2023-02-23T07:35:35;0.20;99.90
59469;DHT22;45277;52.768;18.262;2023-02-23T07:37:06;0.20;99.90
59469;DHT22;45277;52.768;18.262;2023-02-23T07:38:38;0.20;99.90
59469;DHT22;45277;52.768;18.262;2023-02-23T07:40:10;0.30;99.90
59469;DHT22;45277;52.768;18.262;2023-02-23T07:41:42;0.40;99.90
59469;DHT22;45277;52.768;18.262;2023-02-23T07:43:13;0.40;99.90
59469;DHT22;45277;52.768;18.262;2023-02-23T07:44:44;0.50;99.90
59469;DHT22;45277;52.768;18.262;2023-02-23T07:46:16;0.50;99.90
59469;DHT22;45277;52.768;18.262;2023-02-23T07:47:48;0.50;99.90
59469;DHT22;45277;52.768;18.262;2023-02-23T07:49:19;0.60;99.90
59469;DHT22;45277;52.768;18.262;2023-02-23T07:50:51;0.60;99.90
59469;DHT22;45277;52.768;18.262;2023-02-23T07:52:22;0.80;99.90
59469;DHT22;45277;52.768;18.262;2023-02-23T07:53:54;0.70;99.90
59469;DHT22;45277;52.768;18.262;2023-02-23T07:55:26;0.80;99.90
59469;DHT22;45277;52.768;18.262;2023-02-23T07:56:57;0.80;99.90
59469;DHT22;45277;52.768;18.262;2023-02-23T07:58:29;0.80;99.90
59469;DHT22;45277;52.768;18.262;2023-02-23T08:00:02;0.90;99.90
59469;DHT22;45277;52.768;18.262;2023-02-23T08:01:34;0.90;99.90
59469;DHT22;45277;52.768;18.262;2023-02-23T08:03:06;0.90;99.90
59469;DHT22;45277;52.768;18.262;2023-02-23T08:04:38;1.00;99.90
59469;DHT22;45277;52.768;18.262;2023-02-23T08:06:10;1.10;99.90
59469;DHT22;45277;52.768;18.262;2023-02-23T08:07:41;1.20;99.90
59469;DHT22;45277;52.768;18.262;2023-02-23T08:09:13;1.30;99.90
59469;DHT22;45277;52.768;18.262;2023-02-23T08:10:45;1.30;99.90
59469;DHT22;45277;52.768;18.262;2023-02-23T08:12:18;1.40;99.90
59469;DHT22;45277;52.768;18.262;2023-02-23T08:13:49;1.40;99.90
59469;DHT22;45277;52.768;18.262;2023-02-23T08:15:21;1.30;99.90
59469;DHT22;45277;52.768;18.262;2023-02-23T08:16:52;1.40;99.90
59469;DHT22;45277;52.768;18.262;2023-02-23T08:18:24;1.50;99.90
59469;DHT22;45277;52.768;18.262;2023-02-23T08:19:56;1.50;99.90
59469;DHT22;45277;52.768;18.262;2023-02-23T08:21:28;1.50;99.90
59469;DHT22;45277;52.768;18.262;2023-02-23T08:23:00;1.50;99.90
59469;DHT22;45277;52.768;18.262;2023-02-23T08:24:32;1.60;99.90
59469;DHT22;45277;52.768;18.262;2023-02-23T08:26:04;1.60;99.90
59469;DHT22;45277;52.768;18.262;2023-02-23T08:27:37;1.70;99.90
59469;DHT22;45277;52.768;18.262;2023-02-23T08:29:09;1.70;99.90
59469;DHT22;45277;52.768;18.262;2023-02-23T08:30:40;1.70;99.90
59469;DHT22;45277;52.768;18.262;2023-02-23T08:32:12;1.80;99.90
59469;DHT22;45277;52.768;18.262;2023-02-23T08:33:44;1.90;99.90
59469;DHT22;45277;52.768;18.262;2023-02-23T08:35:16;2.00;99.90
59469;DHT22;45277;52.768;18.262;2023-02-23T08:36:50;1.90;99.90
59469;DHT22;45277;52.768;18.262;2023-02-23T08:38:24;1.90;99.90
59469;DHT22;45277;52.768;18.262;2023-02-23T08:39:56;2.00;99.90
59469;DHT22;45277;52.768;18.262;2023-02-23T08:41:28;2.10;99.90
59469;DHT22;45277;52.768;18.262;2023-02-23T08:42:59;2.20;99.90
59469;DHT22;45277;52.768;18.262;2023-02-23T08:44:31;2.20;99.90
59469;DHT22;45277;52.768;18.262;2023-02-23T08:46:02;2.30;99.90
59469;DHT22;45277;52.768;18.262;2023-02-23T08:47:34;2.40;99.90
59469;DHT22;45277;52.768;18.262;2023-02-23T08:49:06;2.40;99.90
59469;DHT22;45277;52.768;18.262;2023-02-23T08:50:41;2.40;99.90
59469;DHT22;45277;52.768;18.262;2023-02-23T08:52:13;2.40;99.90
59469;DHT22;45277;52.768;18.262;2023-02-23T08:53:44;2.50;99.90
59469;DHT22;45277;52.768;18.262;2023-02-23T08:55:16;2.60;99.90
59469;DHT22;45277;52.768;18.262;2023-02-23T08:56:48;2.60;99.90
59469;DHT22;45277;52.768;18.262;2023-02-23T08:58:19;2.70;99.90
59469;DHT22;45277;52.768;18.262;2023-02-23T08:59:51;2.70;99.90
59469;DHT22;45277;52.768;18.262;2023-02-23T09:01:23;2.60;99.90
59469;DHT22;45277;52.768;18.262;2023-02-23T09:02:54;2.70;99.90
59469;DHT22;45277;52.768;18.262;2023-02-23T09:04:26;2.80;99.90
59469;DHT22;45277;52.768;18.262;2023-02-23T09:06:04;2.80;99.90
59469;DHT22;45277;52.768;18.262;2023-02-23T09:07:38;2.90;99.90
59469;DHT22;45277;52.768;18.262;2023-02-23T09:09:10;3.00;99.90
59469;DHT22;45277;52.768;18.262;2023-02-23T09:10:41;3.10;99.90
59469;DHT22;45277;52.768;18.262;2023-02-23T09:12:14;3.20;99.90
59469;DHT22;45277;52.768;18.262;2023-02-23T09:13:45;3.20;99.90
59469;DHT22;45277;52.768;18.262;2023-02-23T09:15:17;3.30;99.90
59469;DHT22;45277;52.768;18.262;2023-02-23T09:16:48;3.30;99.90
59469;DHT22;45277;52.768;18.262;2023-02-23T09:18:20;3.40;99.90
59469;DHT22;45277;52.768;18.262;2023-02-23T09:19:54;3.40;99.90
59469;DHT22;45277;52.768;18.262;2023-02-23T09:21:25;3.40;99.90
59469;DHT22;45277;52.768;18.262;2023-02-23T09:22:59;3.40;99.90
59469;DHT22;45277;52.768;18.262;2023-02-23T09:24:31;3.50;99.90
59469;DHT22;45277;52.768;18.262;2023-02-23T09:26:05;3.40;99.90
59469;DHT22;45277;52.768;18.262;2023-02-23T09:27:37;3.40;99.90
59469;DHT22;45277;52.768;18.262;2023-02-23T09:29:08;3.40;99.90
59469;DHT22;45277;52.768;18.262;2023-02-23T09:30:41;3.50;99.90
59469;DHT22;45277;52.768;18.262;2023-02-23T09:32:13;3.50;99.90
59469;DHT22;45277;52.768;18.262;2023-02-23T09:33:44;3.60;99.90
59469;DHT22;45277;52.768;18.262;2023-02-23T09:35:17;3.60;99.90
59469;DHT22;45277;52.768;18.262;2023-02-23T09:36:49;3.80;99.90
59469;DHT22;45277;52.768;18.262;2023-02-23T09:38:22;3.60;99.90
59469;DHT22;45277;52.768;18.262;2023-02-23T09:39:54;3.70;99.90
59469;DHT22;45277;52.768;18.262;2023-02-23T09:43:28;3.90;99.90
59469;DHT22;45277;52.768;18.262;2023-02-23T09:48:24;4.30;99.90
59469;DHT22;45277;52.768;18.262;2023-02-23T09:50:01;4.40;99.90
59469;DHT22;45277;52.768;18.262;2023-02-23T09:51:37;4.50;99.90
59469;DHT22;45277;52.768;18.262;2023-02-23T09:55:10;4.50;99.90
59469;DHT22;45277;52.768;18.262;2023-02-23T09:56:47;4.30;99.90
59469;DHT22;45277;52.768;18.262;2023-02-23T09:58:27;4.50;99.90
59469;DHT22;45277;52.768;18.262;2023-02-23T10:00:00;4.60;99.90
59469;DHT22;45277;52.768;18.262;2023-02-23T10:03:26;5.00;99.90
59469;DHT22;45277;52.768;18.262;2023-02-23T10:05:03;5.00;99.90
59469;DHT22;45277;52.768;18.262;2023-02-23T10:06:37;4.90;99.90
59469;DHT22;45277;52.768;18.262;2023-02-23T10:12:16;5.40;99.90
59469;DHT22;45277;52.768;18.262;2023-02-23T10:14:01;5.50;99.90
59469;DHT22;45277;52.768;18.262;2023-02-23T10:16:27;5.50;99.90
59469;DHT22;45277;52.768;18.262;2023-02-23T10:19:55;5.70;99.90
59469;DHT22;45277;52.768;18.262;2023-02-23T10:21:32;5.90;98.50
59469;DHT22;45277;52.768;18.262;2023-02-23T10:23:09;6.00;99.60
59469;DHT22;45277;52.768;18.262;2023-02-23T10:24:47;6.00;97.30
59469;DHT22;45277;52.768;18.262;2023-02-23T10:26:24;6.00;95.40
59469;DHT22;45277;52.768;18.262;2023-02-23T10:27:57;6.00;96.20
59469;DHT22;45277;52.768;18.262;2023-02-23T10:29:38;6.10;93.50
59469;DHT22;45277;52.768;18.262;2023-02-23T10:32:58;6.30;93.00
59469;DHT22;45277;52.768;18.262;2023-02-23T10:34:32;6.20;92.20
59469;DHT22;45277;52.768;18.262;2023-02-23T10:36:16;5.90;90.30
59469;DHT22;45277;52.768;18.262;2023-02-23T10:37:50;5.90;86.10
59469;DHT22;45277;52.768;18.262;2023-02-23T10:39:23;5.70;92.90
59469;DHT22;45277;52.768;18.262;2023-02-23T10:40:55;5.90;95.80
59469;DHT22;45277;52.768;18.262;2023-02-23T10:42:27;6.30;96.00
59469;DHT22;45277;52.768;18.262;2023-02-23T10:43:59;6.10;86.50
59469;DHT22;45277;52.768;18.262;2023-02-23T10:45:37;6.10;92.10
59469;DHT22;45277;52.768;18.262;2023-02-23T10:47:19;6.20;90.00